createdAt,value
2019-04-14T00:00:51.483Z,33.05
2019-04-14T00:03:41.151Z,32.40
2019-04-14T00:06:11.294Z,32.98
2019-04-14T00:08:41.573Z,31.02
2019-04-14T00:11:12.514Z,32.65
2019-04-14T00:13:43.415Z,27.98
2019-04-14T00:16:14.180Z,28.27
2019-04-14T00:18:44.743Z,29.27
2019-04-14T00:21:15.165Z,28.30
2019-04-14T00:23:45.605Z,28.25
2019-04-14T00:26:31.518Z,28.83
2019-04-14T00:29:02.478Z,28.75
2019-04-14T00:31:32.959Z,27.20
2019-04-14T00:34:07.385Z,27.25
2019-04-14T00:36:39.445Z,27.13
2019-04-14T00:39:16.616Z,28.00
2019-04-14T00:41:52.499Z,28.95
2019-04-14T00:44:41.008Z,27.02
2019-04-14T00:47:22.184Z,25.75
2019-04-14T00:49:52.904Z,25.15
2019-04-14T00:52:23.348Z,26.77
2019-04-14T00:54:54.224Z,25.43
2019-04-14T00:57:24.714Z,22.98
2019-04-14T00:59:55.214Z,23.18
2019-04-14T01:02:25.361Z,22.22
2019-04-14T01:04:55.518Z,21.73
2019-04-14T01:07:26.209Z,21.75
2019-04-14T01:09:57.522Z,23.83
2019-04-14T01:12:27.810Z,22.58
2019-04-14T01:14:58.208Z,22.52
2019-04-14T01:17:28.684Z,21.48
2019-04-14T01:19:59.270Z,22.30
2019-04-14T01:22:29.925Z,21.20
2019-04-14T01:24:59.999Z,22.25
2019-04-14T01:27:29.937Z,18.30
2019-04-14T01:30:00.342Z,21.02
2019-04-14T01:32:30.525Z,19.95
2019-04-14T01:35:00.994Z,20.90
2019-04-14T01:37:31.759Z,17.75
2019-04-14T01:40:01.381Z,18.95
2019-04-14T01:42:31.135Z,19.10
2019-04-14T01:45:01.419Z,20.15
2019-04-14T01:47:32.099Z,18.62
2019-04-14T01:50:01.849Z,17.62
2019-04-14T01:52:43.613Z,19.23
2019-04-14T01:55:28.769Z,18.15
2019-04-14T01:58:09.984Z,20.10
2019-04-14T02:00:53.387Z,20.75
2019-04-14T02:03:23.909Z,20.45
2019-04-14T02:05:53.921Z,16.85
2019-04-14T02:08:24.081Z,17.15
2019-04-14T02:10:54.379Z,19.32
2019-04-14T02:13:24.702Z,16.55
2019-04-14T02:15:54.976Z,16.95
2019-04-14T02:18:25.086Z,16.62
2019-04-14T02:20:55.736Z,17.52
2019-04-14T02:23:25.799Z,17.15
2019-04-14T02:25:55.775Z,16.55
2019-04-14T02:28:26.371Z,18.35
2019-04-14T02:31:09.070Z,16.70
2019-04-14T02:33:50.829Z,16.52
2019-04-14T02:38:54.894Z,15.05
2019-04-14T02:41:49.284Z,15.00
2019-04-14T02:44:04.368Z,15.98
2019-04-14T02:46:38.427Z,16.07
2019-04-14T02:49:14.361Z,16.70
2019-04-14T02:54:10.065Z,16.65
2019-04-14T02:56:36.806Z,15.05
2019-04-14T02:59:05.716Z,13.93
2019-04-14T03:01:39.430Z,15.83
2019-04-14T03:04:04.045Z,14.58
2019-04-14T03:06:41.656Z,16.45
2019-04-14T03:09:24.339Z,13.08
2019-04-14T03:19:44.259Z,15.15
2019-04-14T03:22:24.999Z,13.05
2019-04-14T03:24:37.584Z,14.60
2019-04-14T03:27:22.799Z,14.03
2019-04-14T03:29:58.284Z,13.15
2019-04-14T03:32:53.018Z,13.20
2019-04-14T03:35:23.135Z,13.88
2019-04-14T03:40:03.874Z,13.08
2019-04-14T03:45:04.563Z,13.65
2019-04-14T03:47:31.071Z,13.83
2019-04-14T03:50:06.014Z,13.83
2019-04-14T03:52:57.135Z,12.35
2019-04-14T03:55:01.135Z,12.95
2019-04-14T03:57:17.356Z,13.80
2019-04-14T03:59:47.788Z,11.70
2019-04-14T04:02:18.281Z,11.78
2019-04-14T04:04:48.916Z,14.30
2019-04-14T04:07:19.237Z,12.53
2019-04-14T04:09:50.444Z,12.75
2019-04-14T04:12:20.369Z,12.63
2019-04-14T04:14:51.071Z,12.35
2019-04-14T04:17:38.733Z,10.95
2019-04-14T04:20:10.928Z,11.83
2019-04-14T04:22:43.319Z,12.30
2019-04-14T04:25:14.636Z,11.93
2019-04-14T04:27:46.195Z,14.35
2019-04-14T04:30:34.092Z,11.48
2019-04-14T04:33:06.373Z,12.13
2019-04-14T04:35:47.813Z,12.03
2019-04-14T04:38:31.327Z,13.45
2019-04-14T04:41:01.567Z,12.68
2019-04-14T04:43:31.858Z,14.55
2019-04-14T04:46:02.657Z,11.43
2019-04-14T04:48:32.852Z,12.75
2019-04-14T04:51:02.979Z,12.25
2019-04-14T04:53:33.075Z,11.95
2019-04-14T04:56:03.611Z,12.70
2019-04-14T04:58:33.201Z,13.00
2019-04-14T05:01:03.509Z,11.38
2019-04-14T05:03:34.250Z,12.78
2019-04-14T05:06:41.667Z,12.15
2019-04-14T05:09:14.409Z,11.40
2019-04-14T05:11:51.815Z,11.73
2019-04-14T05:14:21.597Z,13.13
2019-04-14T05:16:51.132Z,11.60
2019-04-14T05:19:27.714Z,11.15
2019-04-14T05:21:51.913Z,11.53
2019-04-14T05:24:22.222Z,11.95
2019-04-14T05:26:52.739Z,11.10
2019-04-14T05:29:25.299Z,11.43
2019-04-14T05:31:55.541Z,10.30
2019-04-14T05:34:26.091Z,10.80
2019-04-14T05:36:56.391Z,10.85
2019-04-14T05:39:26.456Z,10.43
2019-04-14T05:42:04.970Z,11.95
2019-04-14T05:44:27.545Z,10.93
2019-04-14T05:46:57.876Z,10.10
2019-04-14T05:49:36.509Z,13.83
2019-04-14T05:51:59.161Z,11.25
2019-04-14T05:54:29.664Z,11.95
2019-04-14T05:57:00.095Z,13.48
2019-04-14T05:59:30.677Z,11.85
2019-04-14T06:02:00.405Z,11.05
2019-04-14T06:04:30.997Z,12.30
2019-04-14T06:07:00.717Z,11.50
2019-04-14T06:09:30.617Z,11.43
2019-04-14T06:12:00.186Z,12.15
2019-04-14T06:14:29.752Z,13.53
2019-04-14T06:16:59.374Z,11.35
2019-04-14T06:19:36.963Z,10.65
2019-04-14T06:22:00.172Z,12.07
2019-04-14T06:24:29.735Z,11.88
2019-04-14T06:26:59.308Z,11.75
2019-04-14T06:29:28.968Z,11.28
2019-04-14T06:32:06.292Z,12.28
2019-04-14T06:34:46.192Z,12.23
2019-04-14T06:37:17.368Z,11.78
2019-04-14T06:39:51.205Z,9.83
2019-04-14T06:42:20.763Z,10.60
2019-04-14T06:44:50.350Z,14.18
2019-04-14T06:47:19.909Z,11.00
2019-04-14T06:49:49.634Z,8.80
2019-04-14T06:52:19.301Z,13.10
2019-04-14T06:54:48.883Z,12.60
2019-04-14T06:57:18.456Z,10.88
2019-04-14T06:59:48.023Z,12.18
2019-04-14T07:02:17.627Z,9.80
2019-04-14T07:04:47.191Z,8.98
2019-04-14T07:07:17.663Z,10.25
2019-04-14T07:09:47.239Z,11.25
2019-04-14T07:12:16.876Z,12.78
2019-04-14T07:14:46.561Z,10.90
2019-04-14T07:17:16.129Z,10.18
2019-04-14T07:19:45.739Z,10.88
2019-04-14T07:22:16.272Z,10.25
2019-04-14T07:24:48.973Z,11.18
2019-04-14T07:27:18.789Z,10.55
2019-04-14T07:29:52.056Z,10.13
2019-04-14T07:32:39.360Z,11.12
2019-04-14T07:35:10.518Z,13.20
2019-04-14T07:37:57.781Z,11.33
2019-04-14T07:40:31.660Z,10.90
2019-04-14T07:43:14.978Z,9.83
2019-04-14T07:45:46.085Z,9.53
2019-04-14T07:48:29.237Z,8.68
2019-04-14T07:51:00.405Z,10.05
2019-04-14T07:53:46.404Z,8.93
2019-04-14T07:56:23.055Z,8.98
2019-04-14T07:59:06.519Z,8.95
2019-04-14T08:01:41.581Z,9.15
2019-04-14T08:04:12.713Z,9.38
2019-04-14T08:06:43.829Z,9.43
2019-04-14T08:09:13.499Z,9.53
2019-04-14T08:11:43.063Z,8.13
2019-04-14T08:14:12.636Z,9.23
2019-04-14T08:16:42.195Z,10.38
2019-04-14T08:19:11.813Z,30.65
2019-04-14T08:21:41.374Z,31.35
2019-04-14T08:24:10.947Z,26.68
2019-04-14T08:26:40.514Z,26.52
2019-04-14T08:29:10.088Z,24.92
2019-04-14T08:31:40.052Z,33.18
2019-04-14T08:34:09.610Z,24.43
2019-04-14T08:36:39.193Z,20.95
2019-04-14T08:39:08.766Z,23.50
2019-04-14T08:41:55.033Z,28.50
2019-04-14T08:44:28.972Z,19.40
2019-04-14T08:47:15.857Z,19.40
2019-04-14T08:49:46.983Z,22.00
2019-04-14T08:52:20.841Z,22.00
2019-04-14T08:55:00.728Z,22.87
2019-04-14T08:57:31.957Z,18.67
2019-04-14T09:00:05.805Z,15.85
2019-04-14T09:02:54.753Z,18.15
2019-04-14T09:05:28.841Z,15.10
2019-04-14T09:08:12.249Z,12.78
2019-04-14T09:10:46.385Z,13.25
2019-04-14T09:13:16.024Z,16.85
2019-04-14T09:15:45.580Z,14.25
2019-04-14T09:18:15.141Z,12.65
2019-04-14T09:20:52.275Z,11.53
2019-04-14T09:23:16.008Z,13.32
2019-04-14T09:25:45.569Z,11.85
2019-04-14T09:28:15.132Z,12.40
2019-04-14T09:30:44.728Z,13.30
2019-04-14T09:33:14.281Z,11.25
2019-04-14T09:35:43.873Z,10.70
2019-04-14T09:38:13.460Z,11.15
2019-04-14T09:40:43.405Z,10.72
2019-04-14T09:43:12.994Z,10.45
2019-04-14T09:45:42.568Z,10.93
2019-04-14T09:48:12.330Z,9.18
2019-04-14T09:50:41.897Z,9.85
2019-04-14T09:53:12.572Z,10.28
2019-04-14T09:55:42.160Z,12.33
2019-04-14T09:58:12.719Z,12.10
2019-04-14T10:00:42.323Z,10.60
2019-04-14T10:03:11.884Z,13.00
2019-04-14T10:05:41.469Z,12.68
2019-04-14T10:08:11.237Z,11.68
2019-04-14T10:10:40.781Z,9.95
2019-04-14T10:13:10.519Z,10.82
2019-04-14T10:15:40.466Z,10.08
2019-04-14T10:18:10.048Z,12.07
2019-04-14T10:20:39.620Z,10.60
2019-04-14T10:23:09.187Z,10.03
2019-04-14T10:25:38.782Z,11.78
2019-04-14T10:28:08.351Z,11.20
2019-04-14T10:30:38.795Z,10.98
2019-04-14T10:33:08.367Z,11.18
2019-04-14T10:35:37.953Z,12.93
2019-04-14T10:38:07.552Z,11.15
2019-04-14T10:40:37.119Z,11.88
2019-04-14T10:43:06.721Z,9.13
2019-04-14T10:45:36.269Z,11.83
2019-04-14T10:48:05.842Z,10.08
2019-04-14T10:50:35.412Z,11.57
2019-04-14T10:53:04.986Z,9.03
2019-04-14T10:55:34.592Z,10.60
2019-04-14T10:58:04.137Z,10.38
2019-04-14T11:00:34.798Z,8.40
2019-04-14T11:03:05.634Z,10.88
2019-04-14T11:05:39.557Z,8.78
2019-04-14T11:08:09.116Z,9.63
2019-04-14T11:10:38.687Z,8.75
2019-04-14T11:13:08.353Z,9.90
2019-04-14T11:15:37.925Z,8.88
2019-04-14T11:18:07.507Z,7.85
2019-04-14T11:20:37.069Z,8.85
2019-04-14T11:23:07.596Z,8.40
2019-04-14T11:25:37.153Z,9.78
2019-04-14T11:28:06.728Z,7.80
2019-04-14T11:30:36.284Z,8.15
2019-04-14T11:33:23.788Z,7.78
2019-04-14T11:36:01.152Z,8.10
2019-04-14T11:38:32.265Z,8.23
2019-04-14T11:41:03.389Z,8.15
2019-04-14T11:43:32.936Z,8.60
2019-04-14T11:46:03.770Z,6.87
2019-04-14T11:48:33.792Z,8.10
2019-04-14T11:51:03.376Z,7.95
2019-04-14T11:53:32.935Z,7.58
2019-04-14T11:56:02.521Z,7.08
2019-04-14T11:58:32.101Z,7.00
2019-04-14T12:01:03.260Z,7.17
2019-04-14T12:03:34.383Z,6.62
2019-04-14T12:06:05.516Z,6.90
2019-04-14T12:08:39.209Z,8.13
2019-04-14T12:11:08.758Z,6.92
2019-04-14T12:13:38.394Z,7.62
2019-04-14T12:16:07.930Z,6.72
2019-04-14T12:18:37.512Z,7.83
2019-04-14T12:21:07.065Z,6.75
2019-04-14T12:23:36.742Z,6.65
2019-04-14T12:26:06.327Z,7.53
2019-04-14T12:28:36.165Z,7.20
2019-04-14T12:31:06.525Z,6.70
2019-04-14T12:33:36.137Z,8.13
2019-04-14T12:36:09.153Z,7.70
2019-04-14T12:38:38.733Z,8.15
2019-04-14T12:41:10.504Z,7.40
2019-04-14T12:43:58.135Z,7.20
2019-04-14T12:46:41.446Z,8.35
2019-04-14T12:49:15.576Z,6.75
2019-04-14T12:51:56.240Z,7.85
2019-04-14T12:54:28.071Z,7.25
2019-04-14T12:56:57.666Z,8.05
2019-04-14T12:59:27.701Z,7.72
2019-04-14T13:02:52.285Z,8.43
2019-04-14T13:06:34.894Z,6.95
2019-04-14T13:10:17.117Z,8.10
2019-04-14T13:13:59.278Z,7.15
2019-04-14T13:17:42.454Z,7.35
2019-04-14T13:21:24.891Z,8.20
2019-04-14T13:25:06.931Z,7.75
2019-04-14T13:28:49.273Z,7.37
2019-04-14T13:32:36.278Z,7.97
2019-04-14T13:36:15.864Z,9.68
2019-04-14T13:39:58.250Z,7.55
2019-04-14T13:43:40.576Z,7.40
2019-04-14T13:47:23.049Z,7.62
2019-04-14T13:51:05.567Z,8.03
2019-04-14T13:54:47.930Z,8.05
2019-04-14T13:58:30.356Z,7.45
2019-04-14T14:01:17.714Z,6.83
2019-04-14T14:03:47.350Z,6.97
2019-04-14T14:06:16.911Z,8.25
2019-04-14T14:08:46.484Z,8.85
2019-04-14T14:11:17.621Z,8.45
2019-04-14T14:13:51.790Z,6.87
2019-04-14T14:16:22.908Z,8.58
2019-04-14T14:18:54.106Z,6.92
2019-04-14T14:21:37.501Z,8.75
2019-04-14T14:24:08.672Z,9.48
2019-04-14T14:26:39.804Z,9.33
2019-04-14T14:29:09.377Z,8.75
2019-04-14T14:31:38.993Z,7.60
2019-04-14T14:34:08.535Z,8.10
2019-04-14T14:36:39.792Z,9.30
2019-04-14T14:39:10.653Z,9.38
2019-04-14T14:41:40.361Z,7.58
2019-04-14T14:44:09.919Z,8.20
2019-04-14T14:46:43.782Z,7.30
2019-04-14T14:49:31.145Z,8.33
2019-04-14T14:52:08.791Z,7.83
2019-04-14T14:54:38.366Z,7.92
2019-04-14T14:57:08.317Z,7.20
2019-04-14T14:59:38.024Z,8.05
2019-04-14T15:02:07.575Z,7.62
2019-04-14T15:04:37.151Z,7.65
2019-04-14T15:07:06.730Z,6.85
2019-04-14T15:09:36.476Z,6.90
2019-04-14T15:12:06.053Z,6.72
2019-04-14T15:14:35.642Z,7.87
2019-04-14T15:17:08.179Z,6.85
2019-04-14T15:19:36.431Z,6.95
2019-04-14T15:22:06.043Z,8.88
2019-04-14T15:24:35.597Z,7.47
2019-04-14T15:27:05.184Z,7.10
2019-04-14T15:29:34.753Z,6.85
2019-04-14T15:32:04.334Z,6.25
2019-04-14T15:34:33.916Z,6.62
2019-04-14T15:37:04.758Z,7.67
2019-04-14T15:39:37.612Z,7.55
2019-04-14T15:42:06.555Z,11.08
2019-04-14T15:44:36.276Z,8.18
2019-04-14T15:47:05.833Z,7.35
2019-04-14T15:49:35.434Z,6.90
2019-04-14T15:52:05.073Z,10.30
2019-04-14T15:54:34.728Z,7.30
2019-04-14T15:57:05.997Z,8.05
2019-04-14T15:59:47.049Z,8.35
2019-04-14T16:02:20.670Z,7.58
2019-04-14T16:05:00.970Z,7.70
2019-04-14T16:07:41.277Z,8.83
2019-04-14T16:10:21.598Z,9.90
2019-04-14T16:13:08.708Z,7.03
2019-04-14T16:15:42.585Z,7.25
2019-04-14T16:18:30.054Z,6.90
2019-04-14T16:20:59.764Z,6.65
2019-04-14T16:23:29.321Z,6.62
2019-04-14T16:26:09.849Z,7.00
2019-04-14T16:28:46.883Z,6.50
2019-04-14T16:31:30.267Z,6.80
2019-04-14T16:34:07.247Z,6.60
2019-04-14T16:36:36.994Z,5.75
2019-04-14T16:39:07.488Z,6.35
2019-04-14T16:41:38.659Z,6.58
2019-04-14T16:44:08.223Z,6.40
2019-04-14T16:46:37.832Z,6.75
2019-04-14T16:49:07.423Z,6.25
2019-04-14T16:51:38.565Z,6.45
2019-04-14T16:54:09.719Z,5.60
2019-04-14T16:56:46.620Z,5.70
2019-04-14T16:59:16.298Z,9.15
2019-04-14T17:01:46.436Z,5.58
2019-04-14T17:04:16.213Z,6.03
2019-04-14T17:06:45.806Z,6.78
2019-04-14T17:09:15.425Z,6.67
2019-04-14T17:11:45.292Z,6.42
2019-04-14T17:14:17.671Z,6.78
2019-04-14T17:17:03.918Z,9.10
2019-04-14T17:19:35.296Z,9.15
2019-04-14T17:22:10.405Z,12.03
2019-04-14T17:24:57.911Z,10.65
2019-04-14T17:27:32.189Z,9.93
2019-04-14T17:30:09.669Z,13.43
2019-04-14T17:32:40.990Z,10.32
2019-04-14T17:35:28.269Z,11.45
2019-04-14T17:37:59.474Z,11.28
2019-04-14T17:40:43.432Z,9.30
2019-04-14T17:43:33.276Z,11.48
2019-04-14T17:46:07.473Z,8.43
2019-04-14T17:48:42.476Z,8.10
2019-04-14T17:51:17.008Z,9.03
2019-04-14T17:53:48.264Z,10.72
2019-04-14T17:56:19.434Z,7.85
2019-04-14T17:58:59.571Z,10.45
2019-04-14T18:01:39.681Z,8.93
2019-04-14T18:04:24.412Z,7.95
2019-04-14T18:06:55.541Z,7.85
2019-04-14T18:09:38.361Z,8.80
2019-04-14T18:12:09.492Z,7.92
2019-04-14T18:14:56.872Z,7.65
2019-04-14T18:17:31.196Z,8.10
2019-04-14T18:20:02.318Z,9.43
2019-04-14T18:22:31.880Z,11.20
2019-04-14T18:25:01.492Z,9.35
2019-04-14T18:27:34.116Z,8.80
2019-04-14T18:30:11.814Z,7.92
2019-04-14T18:32:42.879Z,8.38
2019-04-14T18:35:16.566Z,7.67
2019-04-14T18:37:48.699Z,8.38
2019-04-14T18:40:19.851Z,9.30
2019-04-14T18:43:07.240Z,9.45
2019-04-14T18:45:47.424Z,9.75
2019-04-14T18:48:21.279Z,8.53
2019-04-14T18:50:55.146Z,9.30
2019-04-14T18:53:32.299Z,9.33
2019-04-14T18:56:12.444Z,9.03
2019-04-14T18:58:55.777Z,9.75
2019-04-14T19:01:27.022Z,11.48
2019-04-14T19:03:56.614Z,8.50
2019-04-14T19:06:26.171Z,9.80
2019-04-14T19:08:55.755Z,8.73
2019-04-14T19:11:39.071Z,8.55
2019-04-14T19:14:09.743Z,8.88
2019-04-14T19:16:40.891Z,7.92
2019-04-14T19:19:11.364Z,8.13
2019-04-14T19:21:40.928Z,7.80
2019-04-14T19:24:10.479Z,7.95
2019-04-14T19:26:40.047Z,7.47
2019-04-14T19:29:09.667Z,8.98
2019-04-14T19:31:39.253Z,7.85
2019-04-14T19:34:08.797Z,7.35
2019-04-14T19:36:38.426Z,7.12
2019-04-14T19:39:10.522Z,7.90
2019-04-14T19:41:40.631Z,9.10
2019-04-14T19:44:10.205Z,7.47
2019-04-14T19:46:39.788Z,8.80
2019-04-14T19:49:09.367Z,7.97
2019-04-14T19:51:38.949Z,9.65
2019-04-14T19:54:08.533Z,10.08
2019-04-14T19:56:38.112Z,9.63
2019-04-14T19:59:07.700Z,10.38
2019-04-14T20:01:37.249Z,9.08
2019-04-14T20:04:06.822Z,11.93
2019-04-14T20:06:36.398Z,7.92
2019-04-14T20:09:06.641Z,8.53
2019-04-14T20:11:36.536Z,8.65
2019-04-14T20:14:06.699Z,7.15
2019-04-14T20:16:37.867Z,8.90
2019-04-14T20:19:17.657Z,8.03
2019-04-14T20:21:58.495Z,7.62
2019-04-14T20:24:41.840Z,7.55
2019-04-14T20:27:29.464Z,9.38
2019-04-14T20:30:07.957Z,7.50
2019-04-14T20:32:39.114Z,7.40
2019-04-14T20:35:08.888Z,7.60
2019-04-14T20:37:40.344Z,8.58
2019-04-14T20:40:09.837Z,8.98
2019-04-14T20:42:40.288Z,7.22
2019-04-14T20:45:11.829Z,8.95
2019-04-14T20:47:41.469Z,7.83
2019-04-14T20:50:11.104Z,7.17
2019-04-14T20:52:41.020Z,7.17
2019-04-14T20:55:10.586Z,7.90
2019-04-14T20:57:40.479Z,7.28
2019-04-14T21:00:10.004Z,8.55
2019-04-14T21:02:58.905Z,7.95
2019-04-14T21:05:38.798Z,6.50
2019-04-14T21:08:09.974Z,7.35
2019-04-14T21:10:41.080Z,6.83
2019-04-14T21:13:28.105Z,7.47
2019-04-14T21:16:11.898Z,6.70
2019-04-14T21:18:50.308Z,7.40
2019-04-14T21:21:24.103Z,6.80
2019-04-14T21:24:11.772Z,7.87
2019-04-14T21:26:48.651Z,7.17
2019-04-14T21:29:19.780Z,7.47
2019-04-14T21:31:50.914Z,6.80
2019-04-14T21:34:25.025Z,8.63
2019-04-14T21:36:59.033Z,7.28
2019-04-14T21:39:40.586Z,6.97
2019-04-14T21:42:10.019Z,7.85
2019-04-14T21:44:39.597Z,7.70
2019-04-14T21:47:09.162Z,7.15
2019-04-14T21:49:38.779Z,8.75
2019-04-14T21:52:26.539Z,7.10
2019-04-14T21:54:57.096Z,7.67
2019-04-14T21:57:44.532Z,7.62
2019-04-14T22:00:34.771Z,7.28
2019-04-14T22:03:13.455Z,7.15
2019-04-14T22:05:50.459Z,7.87
2019-04-14T22:08:32.052Z,8.33
2019-04-14T22:11:03.576Z,7.22
2019-04-14T22:13:33.314Z,7.53
2019-04-14T22:16:03.547Z,7.55
2019-04-14T22:18:33.344Z,7.15
2019-04-14T22:21:03.225Z,9.08
2019-04-14T22:23:34.074Z,6.60
2019-04-14T22:26:03.999Z,6.35
2019-04-14T22:28:34.231Z,6.37
2019-04-14T22:31:03.880Z,7.40
2019-04-14T22:33:34.744Z,6.97
2019-04-14T22:36:05.609Z,8.65
2019-04-14T22:38:35.507Z,8.03
2019-04-14T22:41:05.642Z,7.95
2019-04-14T22:43:35.556Z,7.35
2019-04-14T22:46:06.187Z,7.47
2019-04-14T22:48:35.999Z,7.90
2019-04-14T22:51:05.707Z,7.47
2019-04-14T22:53:35.418Z,7.97
2019-04-14T22:56:04.978Z,10.60
2019-04-14T22:58:34.564Z,13.45
2019-04-14T23:01:05.712Z,9.65
2019-04-14T23:03:42.695Z,11.30
2019-04-14T23:06:13.848Z,8.95
2019-04-14T23:08:51.975Z,9.68
2019-04-14T23:11:39.350Z,12.68
2019-04-14T23:14:19.576Z,10.15
2019-04-14T23:17:06.998Z,9.38
2019-04-14T23:19:47.258Z,8.33
2019-04-14T23:22:20.934Z,9.88
2019-04-14T23:24:51.199Z,9.38
2019-04-14T23:27:20.761Z,9.00
2019-04-14T23:29:50.327Z,8.65
2019-04-14T23:32:19.960Z,9.45
2019-04-14T23:34:49.450Z,7.90
2019-04-14T23:37:19.052Z,8.53
2019-04-14T23:39:48.620Z,8.73
2019-04-14T23:42:18.200Z,7.90
2019-04-14T23:44:47.756Z,7.85
2019-04-14T23:47:17.341Z,10.03
2019-04-14T23:49:46.951Z,8.45
2019-04-14T23:52:16.917Z,8.40
2019-04-14T23:54:46.465Z,8.38
2019-04-14T23:57:16.030Z,8.05
2019-04-14T23:59:45.607Z,10.53
